Airfield :
LOGIN :

Register | Disclaimer

   EN    FR    IT 

 










Legend :    VFR   Marginal VFR   IFR   Intensive IFR   Very Intensive IFR
Visi :
Ceiling :
>= 8 km
>= 3000ft
5 to 8 km
1000 to 3000 ft
1500m to 5 km
500 to 1000 ft
800 to 1500m
200 to 500 ft
< 800m
< 200 ft
Symbols :   Thunderstorms  Fog  Heavy snow  Heavy precipitations  Wind > 20 kt
SIGMETs :     Misc.  Thunderstorms  Icing  Turbulence  Mountain Waves  Volcanic Ashes







- Airport Elevation : 62 ft
- IATA code : TAN


GMTT - Tanger Ibn Batouta

CURRENT METAR :
  • 250130Z 21005KT 170V240 4200 FEW006 SCT013 BKN020 20/17 Q1017 NOSIG

EXPIRED METARs :
  • 250100Z 21007KT 180V250 4000 BR FEW006 SCT013 BKN020 20/17 Q1017 NOSIG
  • 250030Z 21007KT 190V250 4000 BR FEW006 SCT013 BKN020 20/17 Q1017 NOSIG
  • 250000Z 20006KT 4000 BR FEW006 SCT013 BKN020 20/18 Q1017 NOSIG
  • 242330Z 24006KT 4000 BR FEW006 SCT013 BKN020 20/18 Q1018 NOSIG
  • 242300Z 24006KT 4000 BR SCT006 SCT013 BKN020 20/18 Q1018 NOSIG

TAF TAF GMTT
Valid from the 25 at 00:00 until the 26 at 06:00 UTC


242300Z 2500/2606 26008KT 4000 BR FEW006 SCT013 BKN020
BECMG 2508/2510 NSW
PROB30
TEMPO 2600/2606 4000 BR SCT008 SCT013
No reported NOTAMs for that airfield.



MET'MAP, your aeronautical weather chart ! - Copyright ORBIFLY December 2007 - Disclaimer

ORBIFLY MET'MAP TEAM :

Programming & Development : Alexandra Zaïnal
Concept & Development : Baudouin d'Aumeries
Co-Development & Prog : Marc-Olivier Méhu
Technical & hardware support : Manuel Goepfert

Contact : metmap@orbifly.com




SOURCES & CREDITS :

   NOAA